sensor_id;sensor_type;location;lat;lon;timestamp;pressure;altitude;pressure_sealevel;temperature;humidity
71306;BME280;59097;46.858;18.632;2023-02-26T00:00:27;99319.41;;;4.18;90.54
71306;BME280;59097;46.858;18.632;2023-02-26T00:03:24;99319.50;;;4.25;88.86
71306;BME280;59097;46.858;18.632;2023-02-26T00:05:50;99310.34;;;4.21;89.80
71306;BME280;59097;46.858;18.632;2023-02-26T00:08:16;99299.87;;;3.98;90.66
71306;BME280;59097;46.858;18.632;2023-02-26T00:10:42;99300.44;;;3.86;90.58
71306;BME280;59097;46.858;18.632;2023-02-26T00:13:10;99292.50;;;3.94;90.05
71306;BME280;59097;46.858;18.632;2023-02-26T00:15:43;99291.38;;;4.71;86.94
71306;BME280;59097;46.858;18.632;2023-02-26T00:18:14;99291.38;;;4.71;86.94
71306;BME280;59097;46.858;18.632;2023-02-26T00:20:42;99299.63;;;4.08;90.13
71306;BME280;59097;46.858;18.632;2023-02-26T00:23:12;99302.69;;;3.89;89.76
71306;BME280;59097;46.858;18.632;2023-02-26T00:25:42;99294.06;;;3.80;91.26
71306;BME280;59097;46.858;18.632;2023-02-26T00:28:11;99299.72;;;3.92;91.54
71306;BME280;59097;46.858;18.632;2023-02-26T00:30:39;99302.69;;;3.89;91.78
71306;BME280;59097;46.858;18.632;2023-02-26T00:33:08;99283.81;;;3.70;91.34
71306;BME280;59097;46.858;18.632;2023-02-26T00:36:23;99306.69;;;3.76;92.10
71306;BME280;59097;46.858;18.632;2023-02-26T00:42:00;99302.38;;;3.83;91.64
71306;BME280;59097;46.858;18.632;2023-02-26T00:44:26;99284.81;;;3.92;89.71
71306;BME280;59097;46.858;18.632;2023-02-26T00:52:19;99292.53;;;4.68;86.04
71306;BME280;59097;46.858;18.632;2023-02-26T00:54:51;99292.22;;;4.11;87.00
71306;BME280;59097;46.858;18.632;2023-02-26T00:57:19;99247.50;;;3.82;86.52
71306;BME280;59097;46.858;18.632;2023-02-26T00:59:47;99299.97;;;4.05;86.29
71306;BME280;59097;46.858;18.632;2023-02-26T01:02:15;99317.25;;;3.91;86.34
71306;BME280;59097;46.858;18.632;2023-02-26T01:04:43;99290.09;;;3.84;85.58
71306;BME280;59097;46.858;18.632;2023-02-26T01:07:12;99302.28;;;3.77;85.73
71306;BME280;59097;46.858;18.632;2023-02-26T01:09:56;99315.87;;;3.80;88.18
71306;BME280;59097;46.858;18.632;2023-02-26T01:12:53;99322.56;;;3.83;88.92
71306;BME280;59097;46.858;18.632;2023-02-26T01:15:54;99314.75;;;3.75;89.05
71306;BME280;59097;46.858;18.632;2023-02-26T01:18:27;99338.44;;;3.90;88.13
71306;BME280;59097;46.858;18.632;2023-02-26T01:21:10;99309.97;;;3.78;87.79
71306;BME280;59097;46.858;18.632;2023-02-26T01:23:47;99318.72;;;3.94;88.27
71306;BME280;59097;46.858;18.632;2023-02-26T01:26:21;99321.56;;;3.84;87.86
71306;BME280;59097;46.858;18.632;2023-02-26T01:28:51;99318.66;;;3.79;88.24
71306;BME280;59097;46.858;18.632;2023-02-26T01:31:47;99317.19;;;3.76;88.07
71306;BME280;59097;46.858;18.632;2023-02-26T01:34:41;99308.69;;;3.74;88.23
71306;BME280;59097;46.858;18.632;2023-02-26T01:37:19;99306.13;;;3.89;87.87
71306;BME280;59097;46.858;18.632;2023-02-26T01:42:59;99306.41;;;3.71;88.98
71306;BME280;59097;46.858;18.632;2023-02-26T01:46:25;99313.94;;;3.74;87.02
71306;BME280;59097;46.858;18.632;2023-02-26T01:48:55;99327.22;;;3.73;86.29
71306;BME280;59097;46.858;18.632;2023-02-26T01:51:48;99322.91;;;3.80;85.96
71306;BME280;59097;46.858;18.632;2023-02-26T01:54:21;99325.84;;;3.85;84.87
71306;BME280;59097;46.858;18.632;2023-02-26T01:57:07;99322.50;;;3.91;84.39
71306;BME280;59097;46.858;18.632;2023-02-26T01:59:42;99316.75;;;3.73;83.88
71306;BME280;59097;46.858;18.632;2023-02-26T02:02:12;99299.91;;;3.59;85.25
71306;BME280;59097;46.858;18.632;2023-02-26T02:04:43;99330.59;;;3.81;84.01
71306;BME280;59097;46.858;18.632;2023-02-26T02:07:11;99330.53;;;3.67;85.29
71306;BME280;59097;46.858;18.632;2023-02-26T02:09:40;99314.25;;;3.71;86.46
71306;BME280;59097;46.858;18.632;2023-02-26T02:12:31;99307.78;;;3.59;86.23
71306;BME280;59097;46.858;18.632;2023-02-26T02:23:42;99327.56;;;3.31;87.96
71306;BME280;59097;46.858;18.632;2023-02-26T02:31:21;99346.88;;;3.30;91.30
71306;BME280;59097;46.858;18.632;2023-02-26T02:34:02;99326.97;;;3.60;92.60
71306;BME280;59097;46.858;18.632;2023-02-26T02:36:55;99326.97;;;3.60;92.60
71306;BME280;59097;46.858;18.632;2023-02-26T02:39:31;99357.44;;;2.90;96.10
71306;BME280;59097;46.858;18.632;2023-02-26T02:42:05;99365.00;;;2.77;97.45
71306;BME280;59097;46.858;18.632;2023-02-26T02:44:38;99327.56;;;2.68;96.70
71306;BME280;59097;46.858;18.632;2023-02-26T02:47:09;99373.81;;;2.92;98.06
71306;BME280;59097;46.858;18.632;2023-02-26T02:49:47;99346.34;;;2.72;97.12
71306;BME280;59097;46.858;18.632;2023-02-26T02:52:30;99375.97;;;2.80;98.64
71306;BME280;59097;46.858;18.632;2023-02-26T02:55:06;99378.75;;;2.63;100.00
71306;BME280;59097;46.858;18.632;2023-02-26T02:57:49;99385.59;;;2.80;98.91
71306;BME280;59097;46.858;18.632;2023-02-26T03:00:20;99368.94;;;2.73;97.71
71306;BME280;59097;46.858;18.632;2023-02-26T03:05:22;99377.44;;;2.59;100.00
71306;BME280;59097;46.858;18.632;2023-02-26T03:08:12;99329.50;;;2.18;100.00
71306;BME280;59097;46.858;18.632;2023-02-26T03:10:46;99405.19;;;3.32;97.63
71306;BME280;59097;46.858;18.632;2023-02-26T03:13:18;99405.19;;;3.32;97.63
71306;BME280;59097;46.858;18.632;2023-02-26T03:15:59;99402.78;;;2.50;100.00
71306;BME280;59097;46.858;18.632;2023-02-26T03:18:49;99397.72;;;2.73;100.00
71306;BME280;59097;46.858;18.632;2023-02-26T03:24:36;99391.50;;;2.74;100.00
71306;BME280;59097;46.858;18.632;2023-02-26T03:27:18;99403.28;;;2.78;100.00
71306;BME280;59097;46.858;18.632;2023-02-26T03:33:01;99418.47;;;2.66;100.00
71306;BME280;59097;46.858;18.632;2023-02-26T03:38:04;99421.06;;;2.26;100.00
71306;BME280;59097;46.858;18.632;2023-02-26T03:40:46;99408.50;;;2.37;100.00
71306;BME280;59097;46.858;18.632;2023-02-26T03:43:24;99407.03;;;2.67;100.00
71306;BME280;59097;46.858;18.632;2023-02-26T03:46:02;99411.84;;;3.51;99.09
71306;BME280;59097;46.858;18.632;2023-02-26T03:48:34;99411.84;;;3.51;99.09
71306;BME280;59097;46.858;18.632;2023-02-26T03:51:07;99395.75;;;2.67;100.00
71306;BME280;59097;46.858;18.632;2023-02-26T03:53:52;99383.81;;;2.80;100.00
71306;BME280;59097;46.858;18.632;2023-02-26T03:56:42;99393.97;;;2.83;100.00
71306;BME280;59097;46.858;18.632;2023-02-26T03:59:15;99396.75;;;2.58;100.00
71306;BME280;59097;46.858;18.632;2023-02-26T04:01:50;99400.00;;;2.60;98.05
71306;BME280;59097;46.858;18.632;2023-02-26T04:04:26;99403.44;;;2.44;99.95
71306;BME280;59097;46.858;18.632;2023-02-26T04:07:25;99416.22;;;2.55;100.00
71306;BME280;59097;46.858;18.632;2023-02-26T04:10:08;99421.28;;;2.73;99.10
71306;BME280;59097;46.858;18.632;2023-02-26T04:12:35;99405.91;;;2.78;96.91
71306;BME280;59097;46.858;18.632;2023-02-26T04:15:02;99445.66;;;2.65;94.97
71306;BME280;59097;46.858;18.632;2023-02-26T04:17:30;99459.87;;;2.54;98.76
71306;BME280;59097;46.858;18.632;2023-02-26T04:19:56;99458.41;;;2.60;99.87
71306;BME280;59097;46.858;18.632;2023-02-26T04:22:28;99465.47;;;3.16;95.22
71306;BME280;59097;46.858;18.632;2023-02-26T04:24:57;99465.47;;;3.16;95.22
71306;BME280;59097;46.858;18.632;2023-02-26T04:27:25;99439.53;;;2.24;99.46
71306;BME280;59097;46.858;18.632;2023-02-26T04:29:53;99450.81;;;2.25;99.85
71306;BME280;59097;46.858;18.632;2023-02-26T04:32:21;99448.53;;;2.30;100.00
71306;BME280;59097;46.858;18.632;2023-02-26T04:34:49;99451.97;;;2.38;100.00
71306;BME280;59097;46.858;18.632;2023-02-26T04:37:17;99441.62;;;2.21;100.00
71306;BME280;59097;46.858;18.632;2023-02-26T04:39:46;99461.13;;;2.26;100.00
71306;BME280;59097;46.858;18.632;2023-02-26T04:42:15;99462.25;;;2.24;100.00
71306;BME280;59097;46.858;18.632;2023-02-26T04:45:06;99468.53;;;2.55;100.00
71306;BME280;59097;46.858;18.632;2023-02-26T04:47:36;99468.53;;;2.55;100.00
71306;BME280;59097;46.858;18.632;2023-02-26T04:50:04;99449.47;;;1.71;100.00
71306;BME280;59097;46.858;18.632;2023-02-26T04:52:32;99474.66;;;1.80;100.00
71306;BME280;59097;46.858;18.632;2023-02-26T04:55:01;99476.69;;;1.94;100.00
71306;BME280;59097;46.858;18.632;2023-02-26T04:57:29;99471.09;;;1.81;100.00
71306;BME280;59097;46.858;18.632;2023-02-26T04:59:57;99438.53;;;1.75;100.00
71306;BME280;59097;46.858;18.632;2023-02-26T05:02:27;99445.56;;;1.75;100.00
71306;BME280;59097;46.858;18.632;2023-02-26T05:04:55;99421.41;;;1.47;100.00
71306;BME280;59097;46.858;18.632;2023-02-26T05:07:23;99411.50;;;1.59;100.00
71306;BME280;59097;46.858;18.632;2023-02-26T05:10:05;99478.44;;;1.85;100.00
71306;BME280;59097;46.858;18.632;2023-02-26T05:12:32;99475.09;;;1.67;100.00
71306;BME280;59097;46.858;18.632;2023-02-26T05:14:58;99476.63;;;1.78;100.00
71306;BME280;59097;46.858;18.632;2023-02-26T05:17:24;99466.16;;;1.78;100.00
71306;BME280;59097;46.858;18.632;2023-02-26T05:19:50;99443.72;;;1.67;100.00
71306;BME280;59097;46.858;18.632;2023-02-26T05:22:17;99470.56;;;1.77;100.00
71306;BME280;59097;46.858;18.632;2023-02-26T05:24:43;99473.72;;;1.55;100.00
71306;BME280;59097;46.858;18.632;2023-02-26T05:27:15;99479.28;;;1.86;100.00
71306;BME280;59097;46.858;18.632;2023-02-26T05:29:45;99488.81;;;1.69;100.00
71306;BME280;59097;46.858;18.632;2023-02-26T05:32:13;99478.00;;;1.64;100.00
71306;BME280;59097;46.858;18.632;2023-02-26T05:34:43;99490.94;;;1.74;100.00
71306;BME280;59097;46.858;18.632;2023-02-26T05:37:11;99494.69;;;1.71;100.00
71306;BME280;59097;46.858;18.632;2023-02-26T05:39:39;99497.59;;;1.60;100.00
71306;BME280;59097;46.858;18.632;2023-02-26T05:42:11;99514.34;;;1.75;100.00
71306;BME280;59097;46.858;18.632;2023-02-26T05:44:39;99509.16;;;1.58;100.00
71306;BME280;59097;46.858;18.632;2023-02-26T05:47:07;99471.34;;;1.44;100.00
71306;BME280;59097;46.858;18.632;2023-02-26T05:49:49;99530.13;;;1.66;100.00
71306;BME280;59097;46.858;18.632;2023-02-26T05:52:15;99515.16;;;1.76;100.00
71306;BME280;59097;46.858;18.632;2023-02-26T05:54:41;99514.13;;;1.69;100.00
71306;BME280;59097;46.858;18.632;2023-02-26T05:57:07;99521.81;;;1.45;100.00
71306;BME280;59097;46.858;18.632;2023-02-26T05:59:34;99515.16;;;1.76;100.00
71306;BME280;59097;46.858;18.632;2023-02-26T06:02:00;99498.09;;;1.64;100.00
71306;BME280;59097;46.858;18.632;2023-02-26T06:04:32;99511.00;;;1.91;100.00
71306;BME280;59097;46.858;18.632;2023-02-26T06:07:01;99514.56;;;1.90;100.00
71306;BME280;59097;46.858;18.632;2023-02-26T06:09:29;99514.69;;;1.80;100.00
71306;BME280;59097;46.858;18.632;2023-02-26T06:11:57;99526.28;;;1.78;100.00
71306;BME280;59097;46.858;18.632;2023-02-26T06:14:25;99529.97;;;1.67;100.00
71306;BME280;59097;46.858;18.632;2023-02-26T06:16:53;99533.81;;;1.81;100.00
71306;BME280;59097;46.858;18.632;2023-02-26T06:19:21;99538.81;;;1.74;100.00
71306;BME280;59097;46.858;18.632;2023-02-26T06:21:50;99481.56;;;1.55;100.00
71306;BME280;59097;46.858;18.632;2023-02-26T06:24:18;99531.50;;;1.78;100.00
71306;BME280;59097;46.858;18.632;2023-02-26T06:27:14;99514.13;;;1.69;100.00
71306;BME280;59097;46.858;18.632;2023-02-26T06:29:40;99540.97;;;1.79;100.00
71306;BME280;59097;46.858;18.632;2023-02-26T06:32:07;99520.41;;;1.76;100.00
71306;BME280;59097;46.858;18.632;2023-02-26T06:34:33;99544.69;;;2.02;100.00
71306;BME280;59097;46.858;18.632;2023-02-26T06:37:00;99503.63;;;1.95;100.00
71306;BME280;59097;46.858;18.632;2023-02-26T06:39:26;99545.09;;;2.15;100.00
71306;BME280;59097;46.858;18.632;2023-02-26T06:41:58;99531.56;;;2.78;97.71
71306;BME280;59097;46.858;18.632;2023-02-26T06:44:27;99531.56;;;2.78;97.71
71306;BME280;59097;46.858;18.632;2023-02-26T06:46:55;99539.50;;;2.10;98.78
71306;BME280;59097;46.858;18.632;2023-02-26T06:49:22;99523.34;;;2.15;99.40
71306;BME280;59097;46.858;18.632;2023-02-26T06:51:51;99514.38;;;1.83;100.00
71306;BME280;59097;46.858;18.632;2023-02-26T06:54:19;99561.50;;;2.00;99.36
71306;BME280;59097;46.858;18.632;2023-02-26T06:56:47;99550.78;;;2.11;99.16
71306;BME280;59097;46.858;18.632;2023-02-26T06:59:15;99533.56;;;2.00;99.95
71306;BME280;59097;46.858;18.632;2023-02-26T07:01:57;99547.44;;;2.26;98.86
71306;BME280;59097;46.858;18.632;2023-02-26T07:04:40;99542.13;;;2.10;99.53
71306;BME280;59097;46.858;18.632;2023-02-26T07:07:21;99534.75;;;2.39;97.98
71306;BME280;59097;46.858;18.632;2023-02-26T07:09:48;99504.09;;;2.24;97.76
71306;BME280;59097;46.858;18.632;2023-02-26T07:12:14;99534.16;;;2.20;96.07
71306;BME280;59097;46.858;18.632;2023-02-26T07:14:41;99524.03;;;2.17;96.81
71306;BME280;59097;46.858;18.632;2023-02-26T07:17:14;99538.78;;;2.92;93.16
71306;BME280;59097;46.858;18.632;2023-02-26T07:19:50;99538.78;;;2.92;93.16
71306;BME280;59097;46.858;18.632;2023-02-26T07:22:19;99547.00;;;2.39;95.41
71306;BME280;59097;46.858;18.632;2023-02-26T07:24:49;99546.16;;;2.38;95.55
71306;BME280;59097;46.858;18.632;2023-02-26T07:27:17;99553.88;;;2.48;95.46
71306;BME280;59097;46.858;18.632;2023-02-26T07:29:45;99544.91;;;2.42;95.25
71306;BME280;59097;46.858;18.632;2023-02-26T07:32:13;99543.06;;;2.43;94.20
71306;BME280;59097;46.858;18.632;2023-02-26T07:34:42;99533.78;;;2.48;94.79
71306;BME280;59097;46.858;18.632;2023-02-26T07:37:09;99550.84;;;2.61;92.68
71306;BME280;59097;46.858;18.632;2023-02-26T07:40:09;99541.97;;;2.53;91.18
71306;BME280;59097;46.858;18.632;2023-02-26T07:42:35;99554.59;;;2.58;92.39
71306;BME280;59097;46.858;18.632;2023-02-26T07:45:02;99543.78;;;2.61;91.00
71306;BME280;59097;46.858;18.632;2023-02-26T07:47:28;99541.06;;;2.71;91.86
71306;BME280;59097;46.858;18.632;2023-02-26T07:49:56;99542.66;;;2.64;91.43
71306;BME280;59097;46.858;18.632;2023-02-26T07:52:22;99533.78;;;2.57;92.21
71306;BME280;59097;46.858;18.632;2023-02-26T07:54:54;99545.03;;;3.47;88.55
71306;BME280;59097;46.858;18.632;2023-02-26T07:57:23;99545.03;;;3.47;88.55
71306;BME280;59097;46.858;18.632;2023-02-26T07:59:51;99549.56;;;2.81;91.02
71306;BME280;59097;46.858;18.632;2023-02-26T08:02:19;99554.31;;;2.77;90.43
71306;BME280;59097;46.858;18.632;2023-02-26T08:04:47;99545.94;;;2.74;91.34
71306;BME280;59097;46.858;18.632;2023-02-26T08:07:15;99550.72;;;2.94;91.35
71306;BME280;59097;46.858;18.632;2023-02-26T08:09:43;99554.50;;;2.92;92.25
71306;BME280;59097;46.858;18.632;2023-02-26T08:12:11;99550.09;;;3.00;90.47
71306;BME280;59097;46.858;18.632;2023-02-26T08:14:53;99548.47;;;3.07;90.53
71306;BME280;59097;46.858;18.632;2023-02-26T08:17:52;99545.03;;;2.99;89.75
71306;BME280;59097;46.858;18.632;2023-02-26T08:20:50;99559.91;;;2.90;89.46
71306;BME280;59097;46.858;18.632;2023-02-26T08:23:17;99562.03;;;3.03;89.83
71306;BME280;59097;46.858;18.632;2023-02-26T08:25:44;99564.81;;;2.93;89.78
71306;BME280;59097;46.858;18.632;2023-02-26T08:28:11;99569.09;;;3.10;90.37
71306;BME280;59097;46.858;18.632;2023-02-26T08:30:37;99572.22;;;3.14;88.39
71306;BME280;59097;46.858;18.632;2023-02-26T08:33:03;99563.34;;;3.07;88.34
71306;BME280;59097;46.858;18.632;2023-02-26T08:35:30;99545.22;;;3.22;89.71
71306;BME280;59097;46.858;18.632;2023-02-26T08:38:02;99568.47;;;4.28;86.32
71306;BME280;59097;46.858;18.632;2023-02-26T08:40:31;99568.47;;;4.28;86.32
71306;BME280;59097;46.858;18.632;2023-02-26T08:42:59;99547.97;;;3.52;88.07
71306;BME280;59097;46.858;18.632;2023-02-26T08:45:27;99581.37;;;3.58;87.64
71306;BME280;59097;46.858;18.632;2023-02-26T08:47:55;99591.69;;;3.84;87.78
71306;BME280;59097;46.858;18.632;2023-02-26T08:50:25;99566.16;;;3.62;86.95
71306;BME280;59097;46.858;18.632;2023-02-26T08:52:53;99581.69;;;3.79;87.11
71306;BME280;59097;46.858;18.632;2023-02-26T08:55:22;99583.66;;;3.86;86.45
71306;BME280;59097;46.858;18.632;2023-02-26T08:58:05;99592.62;;;4.07;86.65
71306;BME280;59097;46.858;18.632;2023-02-26T09:01:17;99596.66;;;4.34;85.77
71306;BME280;59097;46.858;18.632;2023-02-26T09:03:44;99593.03;;;4.35;84.75
71306;BME280;59097;46.858;18.632;2023-02-26T09:06:10;99603.50;;;4.43;85.04
71306;BME280;59097;46.858;18.632;2023-02-26T09:08:36;99606.16;;;4.35;84.38
71306;BME280;59097;46.858;18.632;2023-02-26T09:11:03;99597.31;;;4.36;85.37
71306;BME280;59097;46.858;18.632;2023-02-26T09:13:30;99546.94;;;3.86;83.51
71306;BME280;59097;46.858;18.632;2023-02-26T09:16:03;99599.44;;;4.79;83.16
71306;BME280;59097;46.858;18.632;2023-02-26T09:18:33;99599.44;;;4.79;83.16
71306;BME280;59097;46.858;18.632;2023-02-26T09:21:02;99606.38;;;4.25;83.94
71306;BME280;59097;46.858;18.632;2023-02-26T09:23:30;99613.53;;;4.39;85.80
71306;BME280;59097;46.858;18.632;2023-02-26T09:26:00;99615.97;;;4.49;84.86
71306;BME280;59097;46.858;18.632;2023-02-26T09:28:28;99613.06;;;4.36;83.04
71306;BME280;59097;46.858;18.632;2023-02-26T09:30:57;99610.88;;;4.47;83.45
71306;BME280;59097;46.858;18.632;2023-02-26T09:33:25;99613.88;;;4.44;82.58
71306;BME280;59097;46.858;18.632;2023-02-26T09:36:07;99624.41;;;4.28;82.10
71306;BME280;59097;46.858;18.632;2023-02-26T09:38:48;99611.69;;;4.48;81.81
71306;BME280;59097;46.858;18.632;2023-02-26T09:41:21;99615.94;;;4.57;81.85
71306;BME280;59097;46.858;18.632;2023-02-26T09:44:22;99616.38;;;4.69;83.13
71306;BME280;59097;46.858;18.632;2023-02-26T09:53:36;99627.13;;;5.43;76.91
71306;BME280;59097;46.858;18.632;2023-02-26T09:56:22;99636.63;;;4.91;79.19
71306;BME280;59097;46.858;18.632;2023-02-26T09:59:01;99649.97;;;4.81;80.01
71306;BME280;59097;46.858;18.632;2023-02-26T10:02:17;99644.00;;;4.95;79.99
71306;BME280;59097;46.858;18.632;2023-02-26T10:12:27;99682.31;;;5.21;77.90
71306;BME280;59097;46.858;18.632;2023-02-26T10:15:34;99682.66;;;5.18;76.68
71306;BME280;59097;46.858;18.632;2023-02-26T10:18:52;99659.81;;;5.18;75.43
71306;BME280;59097;46.858;18.632;2023-02-26T10:21:49;99687.97;;;5.63;77.41
71306;BME280;59097;46.858;18.632;2023-02-26T10:30:53;99690.66;;;5.24;77.35
71306;BME280;59097;46.858;18.632;2023-02-26T10:34:13;99687.00;;;5.33;79.63
71306;BME280;59097;46.858;18.632;2023-02-26T10:39:56;99703.06;;;6.14;75.27
71306;BME280;59097;46.858;18.632;2023-02-26T10:42:38;99703.06;;;6.14;75.27
71306;BME280;59097;46.858;18.632;2023-02-26T10:49:08;99706.97;;;5.96;74.25
71306;BME280;59097;46.858;18.632;2023-02-26T10:52:16;99713.34;;;6.01;74.12
71306;BME280;59097;46.858;18.632;2023-02-26T10:57:50;99710.34;;;5.90;72.21
71306;BME280;59097;46.858;18.632;2023-02-26T11:00:19;99710.09;;;5.99;72.13
71306;BME280;59097;46.858;18.632;2023-02-26T11:02:48;99708.09;;;6.01;71.24
71306;BME280;59097;46.858;18.632;2023-02-26T11:05:25;99711.53;;;6.02;72.57
71306;BME280;59097;46.858;18.632;2023-02-26T11:08:12;99718.03;;;6.51;69.54
71306;BME280;59097;46.858;18.632;2023-02-26T11:11:02;99718.03;;;6.51;69.54
71306;BME280;59097;46.858;18.632;2023-02-26T11:14:00;99701.91;;;5.94;73.28
71306;BME280;59097;46.858;18.632;2023-02-26T11:17:27;99614.56;;;5.31;73.11
71306;BME280;59097;46.858;18.632;2023-02-26T11:20:46;99713.00;;;5.82;73.06
71306;BME280;59097;46.858;18.632;2023-02-26T11:23:53;99715.75;;;5.88;74.14
71306;BME280;59097;46.858;18.632;2023-02-26T11:26:42;99723.09;;;5.70;71.40
71306;BME280;59097;46.858;18.632;2023-02-26T11:29:36;99703.72;;;5.40;71.70
71306;BME280;59097;46.858;18.632;2023-02-26T11:32:57;99728.75;;;5.59;72.18
71306;BME280;59097;46.858;18.632;2023-02-26T11:35:46;99722.09;;;5.71;73.49
71306;BME280;59097;46.858;18.632;2023-02-26T11:38:52;99628.88;;;4.97;71.84
71306;BME280;59097;46.858;18.632;2023-02-26T11:41:27;99694.28;;;5.23;70.36
71306;BME280;59097;46.858;18.632;2023-02-26T11:44:36;99733.38;;;5.57;70.04
71306;BME280;59097;46.858;18.632;2023-02-26T11:47:15;99738.47;;;5.58;70.39
71306;BME280;59097;46.858;18.632;2023-02-26T11:53:23;99723.53;;;6.04;66.80
71306;BME280;59097;46.858;18.632;2023-02-26T11:55:57;99723.53;;;6.04;66.80
71306;BME280;59097;46.858;18.632;2023-02-26T11:58:28;99734.13;;;5.65;70.31
71306;BME280;59097;46.858;18.632;2023-02-26T12:00:58;99734.66;;;5.61;68.63
71306;BME280;59097;46.858;18.632;2023-02-26T12:03:32;99744.31;;;5.68;67.30
71306;BME280;59097;46.858;18.632;2023-02-26T12:06:01;99743.34;;;5.69;68.17
71306;BME280;59097;46.858;18.632;2023-02-26T12:08:36;99722.44;;;5.68;68.66
71306;BME280;59097;46.858;18.632;2023-02-26T12:28:55;99759.63;;;6.56;66.48
71306;BME280;59097;46.858;18.632;2023-02-26T12:37:42;99778.53;;;5.99;68.71
71306;BME280;59097;46.858;18.632;2023-02-26T13:03:31;99788.84;;;6.46;68.68
71306;BME280;59097;46.858;18.632;2023-02-26T13:12:12;99805.72;;;5.92;71.49
71306;BME280;59097;46.858;18.632;2023-02-26T13:20:22;99815.31;;;5.77;68.52
71306;BME280;59097;46.858;18.632;2023-02-26T13:23:22;99821.00;;;5.88;69.62
71306;BME280;59097;46.858;18.632;2023-02-26T13:25:54;99812.28;;;5.88;69.42
71306;BME280;59097;46.858;18.632;2023-02-26T13:31:02;99789.78;;;5.16;73.89
71306;BME280;59097;46.858;18.632;2023-02-26T13:33:31;99799.31;;;5.08;75.56
71306;BME280;59097;46.858;18.632;2023-02-26T13:36:09;99820.25;;;5.71;72.92
71306;BME280;59097;46.858;18.632;2023-02-26T13:42:14;99817.53;;;5.18;75.41
71306;BME280;59097;46.858;18.632;2023-02-26T13:44:53;99826.59;;;5.07;74.98
71306;BME280;59097;46.858;18.632;2023-02-26T14:01:32;99790.78;;;4.98;75.35
71306;BME280;59097;46.858;18.632;2023-02-26T14:06:58;99827.44;;;5.78;72.38
71306;BME280;59097;46.858;18.632;2023-02-26T14:11:59;99848.37;;;5.24;74.71
71306;BME280;59097;46.858;18.632;2023-02-26T14:17:49;99849.22;;;5.17;78.79
71306;BME280;59097;46.858;18.632;2023-02-26T14:20:26;99832.00;;;5.06;77.35
71306;BME280;59097;46.858;18.632;2023-02-26T14:25:48;99856.63;;;5.21;80.13
71306;BME280;59097;46.858;18.632;2023-02-26T14:29:11;99863.69;;;5.13;80.70
71306;BME280;59097;46.858;18.632;2023-02-26T14:32:02;99863.37;;;5.07;82.18
71306;BME280;59097;46.858;18.632;2023-02-26T14:34:33;99866.34;;;5.04;83.15
71306;BME280;59097;46.858;18.632;2023-02-26T14:37:05;99856.47;;;5.06;83.39
71306;BME280;59097;46.858;18.632;2023-02-26T14:39:46;99843.19;;;5.00;83.72
71306;BME280;59097;46.858;18.632;2023-02-26T14:42:33;99866.00;;;5.62;79.68
71306;BME280;59097;46.858;18.632;2023-02-26T14:48:21;99871.59;;;5.04;82.25
71306;BME280;59097;46.858;18.632;2023-02-26T15:02:25;99898.50;;;5.06;84.50
71306;BME280;59097;46.858;18.632;2023-02-26T15:15:52;99924.97;;;5.13;85.95
71306;BME280;59097;46.858;18.632;2023-02-26T15:18:30;99924.97;;;5.13;85.95
71306;BME280;59097;46.858;18.632;2023-02-26T15:26:21;99941.69;;;4.47;89.68
71306;BME280;59097;46.858;18.632;2023-02-26T15:28:52;99947.28;;;4.44;91.32
71306;BME280;59097;46.858;18.632;2023-02-26T15:31:30;99950.22;;;4.41;91.36
71306;BME280;59097;46.858;18.632;2023-02-26T15:34:01;99952.50;;;4.36;91.26
71306;BME280;59097;46.858;18.632;2023-02-26T15:36:47;99960.19;;;4.30;91.54
71306;BME280;59097;46.858;18.632;2023-02-26T15:39:52;99961.84;;;4.31;92.38
71306;BME280;59097;46.858;18.632;2023-02-26T15:42:21;99971.47;;;4.22;94.61
71306;BME280;59097;46.858;18.632;2023-02-26T15:44:51;99969.66;;;4.15;95.56
71306;BME280;59097;46.858;18.632;2023-02-26T15:47:20;99979.66;;;4.19;95.64
71306;BME280;59097;46.858;18.632;2023-02-26T15:49:47;99971.94;;;4.10;97.84
71306;BME280;59097;46.858;18.632;2023-02-26T15:52:22;99995.88;;;4.65;95.47
71306;BME280;59097;46.858;18.632;2023-02-26T15:54:58;99995.88;;;4.65;95.47
71306;BME280;59097;46.858;18.632;2023-02-26T15:57:27;100003.37;;;4.02;100.00
71306;BME280;59097;46.858;18.632;2023-02-26T16:00:06;100009.06;;;3.63;99.76
71306;BME280;59097;46.858;18.632;2023-02-26T16:02:39;100021.25;;;3.47;100.00
71306;BME280;59097;46.858;18.632;2023-02-26T16:05:11;100027.69;;;3.52;100.00
71306;BME280;59097;46.858;18.632;2023-02-26T16:07:42;100017.81;;;3.46;100.00
71306;BME280;59097;46.858;18.632;2023-02-26T16:10:34;100027.53;;;3.54;100.00
71306;BME280;59097;46.858;18.632;2023-02-26T16:13:30;100023.94;;;3.55;100.00
71306;BME280;59097;46.858;18.632;2023-02-26T16:16:09;100023.13;;;3.54;100.00
71306;BME280;59097;46.858;18.632;2023-02-26T16:18:39;100038.38;;;3.59;100.00
71306;BME280;59097;46.858;18.632;2023-02-26T16:21:08;100041.34;;;3.64;100.00
71306;BME280;59097;46.858;18.632;2023-02-26T16:23:43;100045.47;;;3.66;100.00
71306;BME280;59097;46.858;18.632;2023-02-26T16:26:25;100042.69;;;3.68;100.00
71306;BME280;59097;46.858;18.632;2023-02-26T16:29:05;100049.78;;;4.35;100.00
71306;BME280;59097;46.858;18.632;2023-02-26T16:31:40;100049.78;;;4.35;100.00
71306;BME280;59097;46.858;18.632;2023-02-26T16:34:27;100066.69;;;3.55;100.00
71306;BME280;59097;46.858;18.632;2023-02-26T16:36:57;100062.31;;;3.38;100.00
71306;BME280;59097;46.858;18.632;2023-02-26T16:39:30;100065.53;;;3.32;100.00
71306;BME280;59097;46.858;18.632;2023-02-26T16:42:08;100061.78;;;2.82;100.00
71306;BME280;59097;46.858;18.632;2023-02-26T16:44:56;100066.12;;;2.73;100.00
71306;BME280;59097;46.858;18.632;2023-02-26T16:47:25;100068.59;;;3.10;100.00
71306;BME280;59097;46.858;18.632;2023-02-26T16:49:56;100068.88;;;2.89;100.00
71306;BME280;59097;46.858;18.632;2023-02-26T16:53:18;100066.22;;;3.16;100.00
71306;BME280;59097;46.858;18.632;2023-02-26T16:55:50;100074.28;;;3.23;100.00